Time;durP1;ratioP1;P1;durP2;ratioP2;P2;SDS_P1;SDS_P2;PMS_P1;PMS_P2;Temp;Humidity;BMP_temperature;BMP_pressure;BME280_temperature;BME280_humidity;BME280_pressure;Samples;Min_cycle;Max_cycle;Signal;HPM_P1;HPM_P2
2022/12/19 00:01:47;;;;;;;;;;;;;;;-7.09;86.20;101970.38;2676820;88;20131;-58
2022/12/19 00:05:49;;;;;;;;;;;;;;;-7.11;86.43;101953.95;2676926;87;20102;-59
2022/12/19 00:09:50;;;;;;;;;;;;;;;-7.07;86.71;101949.72;2675646;87;20174;-59
2022/12/19 00:13:52;;;;;;;;;;;;;;;-7.06;86.84;101935.94;2666511;88;20080;-59
2022/12/19 00:17:53;;;;;;;;;;;;;;;-7.04;87.11;101923.49;2645189;88;20160;-58
2022/12/19 00:21:54;;;;;;;;;;;;;;;-7.00;87.08;101929.57;2650396;88;20158;-59
2022/12/19 00:25:57;;;;;;;;;;;;;;;-6.93;87.01;101919.80;2647423;89;20135;-59
2022/12/19 00:29:58;;;;;;;;;;;;;;;-6.88;87.13;101918.55;2648851;88;20071;-59
2022/12/19 00:34:00;;;;;;;;;;;;;;;-6.84;87.07;101919.08;2641567;89;20095;-59
2022/12/19 00:38:02;;;;;;;;;;;;;;;-6.76;86.85;101915.33;2642557;89;20134;-59
2022/12/19 00:42:04;;;;;;;;;;;;;;;-6.72;86.75;101922.70;2647901;88;20150;-59
2022/12/19 00:46:16;;;;;;;;;;;;;;;-6.66;86.83;101920.23;2607228;88;20270;-59
2022/12/19 00:50:17;;;;;;;;;;;;;;;-6.62;87.08;101918.98;2592601;91;20098;-59
2022/12/19 00:54:19;;;;;;;;;;;;;;;-6.63;87.10;101930.19;2638030;89;20120;-59
2022/12/19 00:58:20;;;;;;;;;;;;;;;-6.56;87.63;101933.75;2609546;90;20141;-59
2022/12/19 01:02:22;;;;;;;;;;;;;;;-6.48;87.28;101926.98;2627801;90;20100;-58
2022/12/19 01:06:35;;;;;;;;;;;;;;;-6.55;87.80;101918.66;2647283;88;20134;-59
2022/12/19 01:10:37;;;;;;;;;;;;;;;-6.38;87.26;101912.87;2609421;90;20188;-59
2022/12/19 01:14:38;;;;;;;;;;;;;;;-6.30;86.64;101902.17;2632567;88;20099;-60
2022/12/19 01:19:00;;;;;;;;;;;;;;;-6.23;86.49;101894.96;2592769;88;20126;-59
2022/12/19 01:23:02;;;;;;;;;;;;;;;-6.19;86.62;101881.19;2649501;89;20088;-59
2022/12/19 01:27:03;;;;;;;;;;;;;;;-6.09;86.40;101864.45;2638178;89;20111;-59
2022/12/19 01:31:06;;;;;;;;;;;;;;;-6.07;86.61;101844.65;2624874;90;28394;-59
2022/12/19 01:35:16;;;;;;;;;;;;;;;-5.96;85.98;101849.48;2650387;90;20079;-59
2022/12/19 01:39:17;;;;;;;;;;;;;;;-5.84;85.53;101841.42;2647009;89;20103;-59
2022/12/19 01:43:19;;;;;;;;;;;;;;;-5.78;85.19;101833.70;2639293;90;20142;-59
2022/12/19 01:47:32;;;;;;;;;;;;;;;-5.72;84.86;101838.94;2639140;90;20094;-60
2022/12/19 01:51:45;;;;;;;;;;;;;;;-5.66;84.50;101835.55;2650310;90;20183;-59
2022/12/19 01:55:47;;;;;;;;;;;;;;;-5.64;84.41;101818.28;2645156;89;20101;-59
2022/12/19 01:59:51;;;;;;;;;;;;;;;-5.69;84.08;101807.89;2644754;88;20091;-59
2022/12/19 02:03:54;;;;;;;;;;;;;;;-5.75;84.13;101802.20;2643878;88;20118;-59
2022/12/19 02:07:55;;;;;;;;;;;;;;;-5.81;84.49;101793.05;2654498;89;20166;-59
2022/12/19 02:11:58;;;;;;;;;;;;;;;-5.83;84.28;101785.69;2641017;89;20083;-59
2022/12/19 02:16:07;;;;;;;;;;;;;;;-5.92;84.96;101785.16;2650976;89;20103;-59
2022/12/19 02:20:28;;;;;;;;;;;;;;;-5.96;84.88;101780.80;2668351;88;20109;-59
2022/12/19 02:24:36;;;;;;;;;;;;;;;-5.92;84.44;101786.45;2659490;89;20111;-59
2022/12/19 02:29:00;;;;;;;;;;;;;;;-5.96;84.51;101773.48;2634904;89;20148;-59
2022/12/19 02:33:09;;;;;;;;;;;;;;;-5.92;84.48;101763.13;2650462;88;20109;-59
2022/12/19 02:37:19;;;;;;;;;;;;;;;-6.05;84.66;101769.95;2640965;88;20085;-59
2022/12/19 02:41:24;;;;;;;;;;;;;;;-5.91;84.63;101755.80;2628041;90;20134;-59
2022/12/19 02:45:31;;;;;;;;;;;;;;;-5.90;84.83;101738.09;2649519;90;20139;-59
2022/12/19 02:49:35;;;;;;;;;;;;;;;-5.94;85.22;101726.41;2650866;89;20107;-59
2022/12/19 02:53:37;;;;;;;;;;;;;;;-5.83;85.68;101729.11;2660913;88;20143;-59
2022/12/19 02:57:56;;;;;;;;;;;;;;;-5.71;85.71;101709.75;2654825;88;20095;-59
2022/12/19 03:02:21;;;;;;;;;;;;;;;-5.61;85.70;101698.62;2643851;89;20079;-59
2022/12/19 03:06:28;;;;;;;;;;;;;;;-5.49;85.79;101699.14;2636769;88;20139;-59
2022/12/19 03:10:50;;;;;;;;;;;;;;;-5.39;85.94;101697.92;2650476;88;20091;-59
2022/12/19 03:14:52;;;;;;;;;;;;;;;-5.35;86.00;101688.86;2652113;88;20182;-59
2022/12/19 03:18:54;;;;;;;;;;;;;;;-5.22;85.95;101677.27;2655472;88;20115;-59
2022/12/19 03:22:55;;;;;;;;;;;;;;;-5.12;85.30;101666.07;2653818;89;20207;-59
2022/12/19 03:27:15;;;;;;;;;;;;;;;-5.05;85.22;101663.09;2637240;90;20079;-59
2022/12/19 03:31:19;;;;;;;;;;;;;;;-5.01;85.13;101660.97;2581879;91;20154;-59
2022/12/19 03:35:28;;;;;;;;;;;;;;;-4.87;85.19;101649.34;2565729;92;20140;-59
2022/12/19 03:39:30;;;;;;;;;;;;;;;-4.74;85.43;101649.80;2566023;92;20103;-59
2022/12/19 03:43:34;;;;;;;;;;;;;;;-4.60;85.20;101640.78;2545877;93;20107;-59
2022/12/19 03:48:02;;;;;;;;;;;;;;;-4.51;84.85;101638.65;2553102;92;20180;-59
2022/12/19 03:52:19;;;;;;;;;;;;;;;-4.45;84.51;101642.55;2545042;91;20110;-59
2022/12/19 03:56:41;;;;;;;;;;;;;;;-4.35;84.46;101638.66;2563640;91;20099;-59
2022/12/19 04:00:46;;;;;;;;;;;;;;;-4.28;83.92;101644.31;2566535;91;20121;-60
2022/12/19 04:04:56;;;;;;;;;;;;;;;-4.17;84.05;101646.48;2576700;90;20099;-59
2022/12/19 04:08:58;;;;;;;;;;;;;;;-4.16;83.80;101647.37;2655788;88;20130;-59
2022/12/19 04:13:02;;;;;;;;;;;;;;;-4.14;83.31;101656.02;2634555;90;20565;-59
2022/12/19 04:17:15;;;;;;;;;;;;;;;-4.08;83.42;101651.28;2656649;88;20096;-59
2022/12/19 04:21:20;;;;;;;;;;;;;;;-4.23;83.33;101652.98;2661377;88;20088;-59
2022/12/19 04:25:25;;;;;;;;;;;;;;;-4.29;84.56;101654.28;2649528;88;20101;-59
2022/12/19 04:29:36;;;;;;;;;;;;;;;-4.28;84.26;101661.63;2635498;88;20115;-59
2022/12/19 04:33:37;;;;;;;;;;;;;;;-4.13;83.57;101667.27;2643671;90;20107;-59
2022/12/19 04:37:39;;;;;;;;;;;;;;;-4.10;83.63;101664.70;2657420;89;20152;-59
2022/12/19 04:41:40;;;;;;;;;;;;;;;-4.10;83.54;101660.36;2620461;87;20130;-59
2022/12/19 04:45:41;;;;;;;;;;;;;;;-3.96;82.81;101657.77;2646454;89;20119;-59
2022/12/19 04:49:47;;;;;;;;;;;;;;;-3.85;82.13;101640.86;2650642;88;20095;-60
2022/12/19 04:53:48;;;;;;;;;;;;;;;-3.67;82.11;101632.20;2641129;89;20089;-59
2022/12/19 04:57:49;;;;;;;;;;;;;;;-3.53;81.95;101624.83;2634499;89;20080;-59
2022/12/19 05:01:50;;;;;;;;;;;;;;;-3.40;81.83;101625.66;2658318;88;20177;-59
2022/12/19 05:05:51;;;;;;;;;;;;;;;-3.44;81.95;101620.89;2666694;88;20127;-59
2022/12/19 05:09:52;;;;;;;;;;;;;;;-3.32;81.69;101614.78;2659511;88;20095;-59
2022/12/19 05:13:57;;;;;;;;;;;;;;;-3.20;83.06;101613.88;2621129;89;20187;-59
2022/12/19 05:17:58;;;;;;;;;;;;;;;-2.90;83.76;101612.89;2648344;88;20097;-59
2022/12/19 05:21:59;;;;;;;;;;;;;;;-2.40;87.03;101603.52;2639005;90;20206;-59
2022/12/19 05:26:19;;;;;;;;;;;;;;;-1.65;84.93;101594.64;2631479;88;20170;-58
2022/12/19 05:30:22;;;;;;;;;;;;;;;-1.00;82.11;101590.45;2647134;89;20120;-59
2022/12/19 05:34:23;;;;;;;;;;;;;;;-0.63;79.81;101590.38;2625672;89;20118;-58
2022/12/19 05:38:25;;;;;;;;;;;;;;;-0.34;79.07;101591.72;2660377;88;20191;-58
2022/12/19 05:42:26;;;;;;;;;;;;;;;-0.32;78.25;101593.41;2654561;88;20126;-59
2022/12/19 05:46:27;;;;;;;;;;;;;;;-0.27;77.87;101597.27;2606295;90;20149;-59
2022/12/19 05:50:28;;;;;;;;;;;;;;;-0.12;77.60;101587.45;2627767;89;20091;-59
2022/12/19 05:54:30;;;;;;;;;;;;;;;-0.14;77.06;101592.70;2646074;89;20134;-59
2022/12/19 05:58:31;;;;;;;;;;;;;;;-0.15;77.07;101602.31;2646732;89;20095;-59
2022/12/19 06:02:32;;;;;;;;;;;;;;;-0.14;77.46;101600.55;2647543;89;20107;-59
2022/12/19 06:06:34;;;;;;;;;;;;;;;-0.24;77.66;101596.37;2646939;89;20399;-59
2022/12/19 06:10:35;;;;;;;;;;;;;;;-0.16;77.72;101604.94;2646923;88;20114;-59
2022/12/19 06:14:37;;;;;;;;;;;;;;;-0.19;77.72;101584.07;2643564;88;20153;-58
2022/12/19 06:18:40;;;;;;;;;;;;;;;0.05;77.48;101587.16;2651267;89;20131;-58
2022/12/19 06:22:41;;;;;;;;;;;;;;;0.11;77.08;101591.86;2651698;89;20163;-59
2022/12/19 06:26:43;;;;;;;;;;;;;;;0.06;77.24;101587.58;2658293;88;20108;-59
2022/12/19 06:30:45;;;;;;;;;;;;;;;0.14;77.20;101573.94;2643385;89;20088;-59
2022/12/19 06:34:46;;;;;;;;;;;;;;;0.25;77.11;101581.14;2650989;89;20095;-59
2022/12/19 06:38:49;;;;;;;;;;;;;;;0.21;77.10;101572.08;2623932;89;20066;-59
2022/12/19 06:43:03;;;;;;;;;;;;;;;0.20;77.34;101569.05;2588450;90;20114;-59
2022/12/19 06:47:04;;;;;;;;;;;;;;;0.23;77.14;101558.06;2651428;90;20101;-59
2022/12/19 06:51:06;;;;;;;;;;;;;;;0.20;77.07;101551.58;2651038;89;20154;-59
2022/12/19 06:55:08;;;;;;;;;;;;;;;0.21;77.10;101562.46;2651432;88;20142;-59
2022/12/19 06:59:12;;;;;;;;;;;;;;;0.12;77.26;101558.25;2673963;88;20105;-58
2022/12/19 07:03:16;;;;;;;;;;;;;;;0.11;77.74;101551.30;2627615;89;20121;-59
2022/12/19 07:07:18;;;;;;;;;;;;;;;0.14;77.50;101546.00;2651969;88;20108;-59
2022/12/19 07:11:20;;;;;;;;;;;;;;;0.11;78.09;101549.98;2660625;89;20119;-59
2022/12/19 07:15:22;;;;;;;;;;;;;;;0.08;78.20;101547.43;2649841;88;20108;-59
2022/12/19 07:19:24;;;;;;;;;;;;;;;0.18;77.80;101548.13;2612723;90;20103;-59
2022/12/19 07:23:26;;;;;;;;;;;;;;;0.10;78.34;101536.48;2644351;90;20158;-58
2022/12/19 07:27:28;;;;;;;;;;;;;;;0.18;78.46;101538.97;2649016;88;20155;-59
2022/12/19 07:31:29;;;;;;;;;;;;;;;0.26;78.16;101538.37;2661126;89;20095;-59
2022/12/19 07:35:30;;;;;;;;;;;;;;;0.23;78.26;101541.05;2659513;88;20108;-59
2022/12/19 07:39:31;;;;;;;;;;;;;;;0.29;78.14;101529.61;2671359;89;20159;-59
2022/12/19 07:43:33;;;;;;;;;;;;;;;0.38;77.80;101525.48;2651609;89;20075;-59
2022/12/19 07:47:35;;;;;;;;;;;;;;;0.51;77.10;101523.52;2650514;89;20149;-58
2022/12/19 07:51:36;;;;;;;;;;;;;;;0.63;76.60;101525.02;2648700;89;20139;-59
2022/12/19 07:55:37;;;;;;;;;;;;;;;0.78;76.56;101532.13;2649298;89;20122;-59
2022/12/19 07:59:38;;;;;;;;;;;;;;;0.73;76.74;101518.27;2649088;89;20134;-59
2022/12/19 08:03:40;;;;;;;;;;;;;;;0.88;76.20;101514.02;2606482;90;20093;-59
2022/12/19 08:07:41;;;;;;;;;;;;;;;0.99;76.03;101526.45;2659691;88;20080;-59
2022/12/19 08:11:43;;;;;;;;;;;;;;;1.12;75.28;101520.92;2653677;89;20072;-59
2022/12/19 08:15:44;;;;;;;;;;;;;;;1.16;75.06;101531.74;2648585;88;20105;-59
2022/12/19 08:19:45;;;;;;;;;;;;;;;1.19;74.44;101512.48;2631865;88;20124;-59
2022/12/19 08:23:47;;;;;;;;;;;;;;;1.22;74.58;101504.10;2687840;88;20132;-59
2022/12/19 08:27:48;;;;;;;;;;;;;;;1.34;74.59;101509.94;2661428;88;20146;-59
2022/12/19 08:31:50;;;;;;;;;;;;;;;1.19;74.55;101508.55;2656849;89;20111;-58
2022/12/19 08:35:51;;;;;;;;;;;;;;;1.12;73.96;101500.83;2655317;88;20154;-59
2022/12/19 08:39:52;;;;;;;;;;;;;;;1.29;73.58;101503.52;2654008;88;20122;-59
2022/12/19 08:43:54;;;;;;;;;;;;;;;1.25;73.89;101505.77;2654251;88;20099;-59
2022/12/19 08:47:55;;;;;;;;;;;;;;;1.17;74.03;101494.15;2634471;90;20210;-59
2022/12/19 08:51:56;;;;;;;;;;;;;;;1.22;73.94;101498.86;2659184;88;20120;-59
2022/12/19 08:56:01;;;;;;;;;;;;;;;1.33;73.84;101520.89;2677637;88;20103;-59
2022/12/19 09:00:07;;;;;;;;;;;;;;;1.39;73.44;101512.88;2653753;88;20497;-59
2022/12/19 09:04:08;;;;;;;;;;;;;;;1.47;73.51;101510.07;2645598;87;20141;-59
2022/12/19 09:08:10;;;;;;;;;;;;;;;1.58;73.61;101510.27;2673297;88;20112;-59
2022/12/19 09:12:13;;;;;;;;;;;;;;;1.59;73.80;101505.44;2653476;88;20128;-59
2022/12/19 09:16:17;;;;;;;;;;;;;;;1.66;73.58;101500.44;2670933;87;20134;-59
2022/12/19 09:20:20;;;;;;;;;;;;;;;1.67;73.54;101492.98;2648043;90;20063;-59
2022/12/19 09:24:21;;;;;;;;;;;;;;;1.73;73.54;101484.09;2647642;88;20142;-59
2022/12/19 09:28:23;;;;;;;;;;;;;;;1.87;73.41;101464.05;2650498;90;20107;-59
2022/12/19 09:32:24;;;;;;;;;;;;;;;1.94;73.08;101465.16;2626667;89;20105;-59
2022/12/19 09:36:26;;;;;;;;;;;;;;;2.12;72.58;101474.29;2616120;90;20068;-59
2022/12/19 09:41:00;;;;;;;;;;;;;;;2.31;72.31;101482.97;2608052;90;20136;-59
2022/12/19 09:45:40;;;;;;;;;;;;;;;2.31;71.89;101483.44;2634617;88;20150;-59
2022/12/19 09:49:43;;;;;;;;;;;;;;;2.46;71.53;101458.50;2615285;90;20131;-59
2022/12/19 09:53:48;;;;;;;;;;;;;;;2.41;71.21;101459.94;2642788;88;20087;-59
2022/12/19 09:58:11;;;;;;;;;;;;;;;2.35;71.07;101468.84;2650518;88;20103;-59
2022/12/19 10:02:24;;;;;;;;;;;;;;;2.45;70.99;101458.09;2630212;89;20140;-59
2022/12/19 10:06:26;;;;;;;;;;;;;;;2.38;70.89;101462.22;2638348;90;20087;-58
2022/12/19 10:10:42;;;;;;;;;;;;;;;2.53;71.06;101454.77;2649554;88;20096;-58
2022/12/19 10:14:55;;;;;;;;;;;;;;;2.48;71.46;101454.05;2651008;89;20123;-59
2022/12/19 10:19:05;;;;;;;;;;;;;;;2.56;71.61;101443.73;2650778;88;20126;-58
2022/12/19 10:23:37;;;;;;;;;;;;;;;2.49;71.63;101440.89;2643542;89;20108;-58
2022/12/19 10:28:12;;;;;;;;;;;;;;;2.51;71.14;101418.50;2654982;89;20158;-58
2022/12/19 10:32:39;;;;;;;;;;;;;;;2.53;70.79;101408.80;2647435;88;20140;-56
2022/12/19 10:36:58;;;;;;;;;;;;;;;2.52;70.89;101417.59;2647155;88;20088;-59
2022/12/19 10:41:18;;;;;;;;;;;;;;;2.60;71.07;101415.61;2607703;90;20089;-59
2022/12/19 10:45:21;;;;;;;;;;;;;;;2.53;71.49;101421.50;2638867;90;20079;-59
2022/12/19 10:49:25;;;;;;;;;;;;;;;2.63;70.93;101398.88;2650756;89;20134;-59
2022/12/19 10:53:31;;;;;;;;;;;;;;;2.62;71.35;101396.72;2650613;89;20177;-59
2022/12/19 10:57:31;;;;;;;;;;;;;;;2.70;71.74;101386.81;2650499;88;20119;-58
2022/12/19 11:01:39;;;;;;;;;;;;;;;2.80;71.50;101378.19;2650769;89;20131;-59
2022/12/19 11:05:44;;;;;;;;;;;;;;;2.74;71.34;101369.64;2660269;89;20130;-59
2022/12/19 11:09:46;;;;;;;;;;;;;;;2.69;71.42;101352.73;2654318;88;20150;-58
2022/12/19 11:13:47;;;;;;;;;;;;;;;2.64;71.56;101360.75;2666925;89;20140;-59
2022/12/19 11:17:48;;;;;;;;;;;;;;;2.58;71.55;101362.27;2653126;88;20092;-59
2022/12/19 11:21:49;;;;;;;;;;;;;;;2.51;70.94;101355.46;2675534;88;20097;-59
2022/12/19 11:25:58;;;;;;;;;;;;;;;2.52;70.82;101365.06;2655326;88;20138;-58
2022/12/19 11:30:00;;;;;;;;;;;;;;;2.66;71.35;101373.38;2655535;88;20107;-58
2022/12/19 11:34:04;;;;;;;;;;;;;;;2.67;71.21;101350.14;2655153;88;20083;-59
2022/12/19 11:38:07;;;;;;;;;;;;;;;2.74;71.09;101347.30;2655230;90;20092;-58
2022/12/19 11:42:15;;;;;;;;;;;;;;;2.74;70.73;101326.28;2655443;88;20124;-59
2022/12/19 11:46:26;;;;;;;;;;;;;;;2.77;70.56;101320.48;2691304;88;20128;-58
2022/12/19 11:50:31;;;;;;;;;;;;;;;2.70;70.52;101304.05;2699216;88;20189;-58
2022/12/19 11:54:35;;;;;;;;;;;;;;;2.67;71.13;101292.34;2644282;89;20095;-58
2022/12/19 11:58:36;;;;;;;;;;;;;;;2.52;72.03;101266.56;2677160;87;20232;-58
2022/12/19 12:02:56;;;;;;;;;;;;;;;2.47;72.37;101269.36;2656327;89;20123;-58
2022/12/19 12:06:58;;;;;;;;;;;;;;;2.45;72.58;101250.61;2654460;90;20239;-56
2022/12/19 12:11:03;;;;;;;;;;;;;;;2.38;72.50;101249.94;2654615;89;20114;-59
2022/12/19 12:15:42;;;;;;;;;;;;;;;2.46;72.46;101252.33;2654609;88;20075;-59
2022/12/19 12:20:04;;;;;;;;;;;;;;;2.52;72.89;101248.17;2620258;89;20093;-59
2022/12/19 12:24:11;;;;;;;;;;;;;;;2.37;72.63;101242.53;2645487;88;20187;-58
2022/12/19 12:28:47;;;;;;;;;;;;;;;2.43;72.22;101248.02;2644020;88;20133;-59
2022/12/19 12:33:11;;;;;;;;;;;;;;;2.42;72.58;101263.37;2649605;89;20122;-58
2022/12/19 12:38:01;;;;;;;;;;;;;;;2.42;72.50;101272.13;2649481;89;20118;-59
2022/12/19 12:42:32;;;;;;;;;;;;;;;2.49;73.23;101275.86;2645982;89;20083;-58
2022/12/19 12:47:05;;;;;;;;;;;;;;;2.56;73.34;101277.39;2650650;88;20111;-58
2022/12/19 12:51:06;;;;;;;;;;;;;;;2.49;73.92;101266.66;2650126;90;20111;-58
2022/12/19 12:55:19;;;;;;;;;;;;;;;2.40;74.42;101256.87;2651369;89;20139;-58
2022/12/19 12:59:26;;;;;;;;;;;;;;;2.37;74.56;101253.48;2659926;88;20107;-58
2022/12/19 13:03:28;;;;;;;;;;;;;;;2.39;75.07;101239.40;2664213;89;20092;-58
2022/12/19 13:07:42;;;;;;;;;;;;;;;2.33;75.46;101233.02;2653523;89;20088;-58
2022/12/19 13:16:44;;;;;;;;;;;;;;;2.14;76.12;101224.41;2651453;88;20075;-58
2022/12/19 13:20:47;;;;;;;;;;;;;;;2.09;76.70;101240.77;2654446;87;20107;-58
2022/12/19 13:24:56;;;;;;;;;;;;;;;2.07;76.42;101238.64;2647421;89;20107;-57
2022/12/19 13:29:01;;;;;;;;;;;;;;;2.06;76.87;101232.98;2651656;88;20103;-58
2022/12/19 13:33:05;;;;;;;;;;;;;;;2.10;77.11;101220.64;2651524;88;20075;-58
2022/12/19 13:37:20;;;;;;;;;;;;;;;2.09;77.16;101216.30;2653702;88;20159;-58
2022/12/19 13:46:01;;;;;;;;;;;;;;;2.02;77.99;101209.06;2657751;88;20101;-58
2022/12/19 13:50:08;;;;;;;;;;;;;;;2.02;78.45;101210.81;2671280;88;20073;-58
2022/12/19 13:54:27;;;;;;;;;;;;;;;1.95;78.31;101207.52;2668967;88;20119;-58
2022/12/19 13:58:32;;;;;;;;;;;;;;;1.91;78.99;101219.02;2654660;88;20098;-57
2022/12/19 14:02:39;;;;;;;;;;;;;;;1.91;78.43;101209.84;2652598;90;20099;-58
2022/12/19 14:06:42;;;;;;;;;;;;;;;2.05;78.86;101224.71;2635193;90;20076;-57
2022/12/19 14:10:46;;;;;;;;;;;;;;;2.08;79.28;101210.17;2627028;90;20111;-57
2022/12/19 14:19:25;;;;;;;;;;;;;;;2.05;79.33;101206.77;2648915;88;20095;-55
2022/12/19 14:23:25;;;;;;;;;;;;;;;2.19;79.42;101210.30;2644576;88;20127;-55
2022/12/19 14:27:36;;;;;;;;;;;;;;;2.15;79.17;101192.47;2600900;90;20134;-57
2022/12/19 14:31:39;;;;;;;;;;;;;;;2.17;78.96;101189.33;2619522;90;20075;-57
2022/12/19 14:35:45;;;;;;;;;;;;;;;2.13;78.66;101196.44;2650939;89;20088;-57
2022/12/19 14:39:46;;;;;;;;;;;;;;;2.04;78.67;101186.25;2647435;90;20104;-58
2022/12/19 14:43:51;;;;;;;;;;;;;;;2.05;79.37;101180.53;2606481;90;20110;-57
2022/12/19 14:47:52;;;;;;;;;;;;;;;1.91;79.54;101175.72;2609802;90;20093;-57
2022/12/19 14:51:53;;;;;;;;;;;;;;;2.00;79.37;101184.64;2645152;88;20119;-57
2022/12/19 14:56:03;;;;;;;;;;;;;;;1.96;79.33;101169.88;2652837;88;20064;-57
2022/12/19 15:00:25;;;;;;;;;;;;;;;1.98;79.54;101172.02;2659109;88;20116;-57
2022/12/19 15:04:48;;;;;;;;;;;;;;;1.94;79.57;101167.75;2666576;89;20073;-57
2022/12/19 15:08:50;;;;;;;;;;;;;;;1.89;80.04;101167.05;2609411;90;20101;-57
2022/12/19 15:13:18;;;;;;;;;;;;;;;1.94;80.18;101169.94;2644667;90;20157;-57
2022/12/19 15:17:29;;;;;;;;;;;;;;;1.94;80.42;101172.56;2650754;88;20094;-57
2022/12/19 15:21:30;;;;;;;;;;;;;;;1.91;80.86;101159.55;2650875;90;20096;-57
2022/12/19 15:25:32;;;;;;;;;;;;;;;1.98;80.43;101170.23;2650957;90;20099;-57
2022/12/19 15:29:33;;;;;;;;;;;;;;;1.92;80.38;101156.45;2631019;88;20116;-57
2022/12/19 15:33:34;;;;;;;;;;;;;;;1.94;80.37;101155.94;2651928;88;20111;-57
2022/12/19 15:37:35;;;;;;;;;;;;;;;2.00;80.54;101157.92;2655192;89;20133;-57
2022/12/19 15:41:36;;;;;;;;;;;;;;;2.04;80.12;101142.94;2639545;88;20121;-57
2022/12/19 15:45:37;;;;;;;;;;;;;;;2.03;79.65;101138.61;2638184;88;20151;-57
2022/12/19 15:49:38;;;;;;;;;;;;;;;1.98;79.95;101133.50;2650563;89;20190;-57
2022/12/19 15:53:40;;;;;;;;;;;;;;;2.07;80.04;101132.34;2650285;89;20088;-56
2022/12/19 15:57:47;;;;;;;;;;;;;;;2.12;80.19;101123.02;2650413;89;20103;-57
2022/12/19 16:01:49;;;;;;;;;;;;;;;2.11;79.69;101111.64;2671276;89;20148;-57
2022/12/19 16:05:50;;;;;;;;;;;;;;;2.15;80.11;101112.41;2669596;89;20121;-57
2022/12/19 16:09:53;;;;;;;;;;;;;;;2.20;79.75;101103.07;2647797;88;20249;-56
2022/12/19 16:13:56;;;;;;;;;;;;;;;2.21;80.10;101097.75;2623072;90;20093;-56
2022/12/19 16:17:58;;;;;;;;;;;;;;;2.27;80.67;101104.56;2646362;88;20092;-57
2022/12/19 16:22:00;;;;;;;;;;;;;;;2.21;80.62;101104.31;2648358;89;20151;-57
2022/12/19 16:26:46;;;;;;;;;;;;;;;2.31;80.48;101095.67;2658347;89;20083;-57
2022/12/19 16:30:49;;;;;;;;;;;;;;;2.30;79.67;101090.02;2627214;88;20089;-56
2022/12/19 16:34:55;;;;;;;;;;;;;;;2.30;79.52;101083.45;2664853;88;20172;-56
2022/12/19 16:38:56;;;;;;;;;;;;;;;2.32;79.34;101092.60;2662250;88;20087;-57
2022/12/19 16:43:04;;;;;;;;;;;;;;;2.36;79.65;101085.89;2580949;90;20151;-56
2022/12/19 16:47:11;;;;;;;;;;;;;;;2.26;79.42;101094.98;2654779;88;20094;-56
2022/12/19 16:51:20;;;;;;;;;;;;;;;2.31;79.65;101090.89;2660901;88;20132;-57
2022/12/19 16:55:23;;;;;;;;;;;;;;;2.32;79.69;101088.66;2655556;88;20099;-57
2022/12/19 16:59:33;;;;;;;;;;;;;;;2.31;79.97;101089.58;2652092;88;20124;-57
2022/12/19 17:03:53;;;;;;;;;;;;;;;2.30;79.51;101088.70;2637844;89;20171;-56
2022/12/19 17:07:55;;;;;;;;;;;;;;;2.35;80.57;101088.55;2656331;88;20135;-57
2022/12/19 17:11:57;;;;;;;;;;;;;;;2.34;80.63;101083.74;2647917;88;20085;-57
2022/12/19 17:15:59;;;;;;;;;;;;;;;2.31;80.11;101074.66;2637853;88;20312;-56
2022/12/19 17:20:05;;;;;;;;;;;;;;;2.23;80.59;101071.46;2647843;88;20116;-57
2022/12/19 17:24:10;;;;;;;;;;;;;;;2.28;80.44;101072.15;2659019;88;20110;-57
2022/12/19 17:28:12;;;;;;;;;;;;;;;2.32;80.84;101061.09;2660109;88;20119;-57
2022/12/19 17:32:15;;;;;;;;;;;;;;;2.32;81.46;101061.94;2672762;88;20153;-57
2022/12/19 17:36:17;;;;;;;;;;;;;;;2.35;81.93;101067.08;2687256;88;20135;-57
2022/12/19 17:40:30;;;;;;;;;;;;;;;2.38;81.38;101060.43;2598749;89;20131;-57
2022/12/19 17:44:31;;;;;;;;;;;;;;;2.38;81.15;101049.92;2655230;88;20201;-57
2022/12/19 17:48:32;;;;;;;;;;;;;;;2.43;81.74;101047.11;2658488;88;20107;-58
2022/12/19 17:52:42;;;;;;;;;;;;;;;2.42;81.93;101042.33;2658037;89;20143;-57
2022/12/19 17:56:43;;;;;;;;;;;;;;;2.45;82.43;101033.94;2655764;88;20063;-57
2022/12/19 18:00:46;;;;;;;;;;;;;;;2.46;83.36;101027.77;2692008;88;20128;-57
2022/12/19 18:04:47;;;;;;;;;;;;;;;2.50;83.12;101032.88;2648458;89;20185;-57
2022/12/19 18:08:49;;;;;;;;;;;;;;;2.53;83.70;101041.08;2658315;88;20215;-56
2022/12/19 18:12:50;;;;;;;;;;;;;;;2.56;82.97;101037.89;2665093;88;20108;-58
2022/12/19 18:16:51;;;;;;;;;;;;;;;2.63;83.31;101031.97;2656542;88;20131;-57
2022/12/19 18:20:53;;;;;;;;;;;;;;;2.63;83.08;101038.97;2691466;88;20106;-57
2022/12/19 18:24:55;;;;;;;;;;;;;;;2.65;83.04;101032.76;2693165;87;20173;-58
2022/12/19 18:28:56;;;;;;;;;;;;;;;2.68;82.79;101031.33;2694432;87;20286;-58
2022/12/19 18:33:00;;;;;;;;;;;;;;;2.67;82.82;101023.05;2685544;86;20160;-58
2022/12/19 18:37:04;;;;;;;;;;;;;;;2.66;82.16;101020.02;2702118;87;20152;-58
2022/12/19 18:41:04;;;;;;;;;;;;;;;2.68;82.51;101019.51;2672929;89;20130;-58
2022/12/19 18:45:07;;;;;;;;;;;;;;;2.79;82.11;101023.52;2626113;90;20089;-58
2022/12/19 18:49:14;;;;;;;;;;;;;;;2.83;82.43;101021.17;2655869;87;20236;-58
2022/12/19 18:53:18;;;;;;;;;;;;;;;2.79;82.44;101008.59;2691231;87;20328;-58
2022/12/19 18:57:19;;;;;;;;;;;;;;;2.89;82.60;101014.36;2692398;87;20173;-58
2022/12/19 19:01:21;;;;;;;;;;;;;;;2.90;82.71;101020.02;2700782;87;20126;-58
2022/12/19 19:05:25;;;;;;;;;;;;;;;2.92;82.59;101023.44;2684782;87;20162;-57
2022/12/19 19:09:26;;;;;;;;;;;;;;;2.96;82.32;101020.23;2682563;87;20086;-58
2022/12/19 19:13:27;;;;;;;;;;;;;;;2.89;82.06;101020.92;2676811;89;20130;-59
2022/12/19 19:17:31;;;;;;;;;;;;;;;2.90;81.59;101025.73;2648016;89;20074;-58
2022/12/19 19:21:34;;;;;;;;;;;;;;;2.95;82.15;101023.34;2699786;87;20135;-58
2022/12/19 19:25:35;;;;;;;;;;;;;;;2.86;81.80;101023.67;2663293;89;20414;-58
2022/12/19 19:29:37;;;;;;;;;;;;;;;2.88;81.72;101018.38;2675507;87;20431;-59
2022/12/19 19:33:40;;;;;;;;;;;;;;;2.88;81.80;101023.63;2683354;87;20104;-58
2022/12/19 19:37:43;;;;;;;;;;;;;;;2.82;81.62;101028.18;2680951;87;20097;-57
2022/12/19 19:41:44;;;;;;;;;;;;;;;2.78;81.95;101034.94;2710002;86;20097;-59
2022/12/19 19:45:45;;;;;;;;;;;;;;;2.80;81.77;101022.60;2678616;86;20174;-58
2022/12/19 19:49:46;;;;;;;;;;;;;;;2.77;81.90;101021.41;2695974;87;20111;-57
2022/12/19 19:53:47;;;;;;;;;;;;;;;2.80;81.93;101013.41;2655520;89;20122;-58
2022/12/19 19:57:49;;;;;;;;;;;;;;;2.81;82.04;101008.55;2676712;89;20150;-60
2022/12/19 20:01:52;;;;;;;;;;;;;;;2.82;82.37;101011.57;2678695;87;20134;-60
2022/12/19 20:05:59;;;;;;;;;;;;;;;2.84;82.41;101003.17;2688840;87;20098;-61
2022/12/19 20:10:00;;;;;;;;;;;;;;;2.81;82.69;101004.13;2666064;87;20145;-60
2022/12/19 20:14:01;;;;;;;;;;;;;;;2.89;82.38;101005.16;2670338;88;20068;-59
2022/12/19 20:18:16;;;;;;;;;;;;;;;2.92;82.80;101006.83;2676456;87;20191;-60
2022/12/19 20:22:17;;;;;;;;;;;;;;;2.85;83.38;100999.63;2668395;87;20119;-60
2022/12/19 20:30:22;;;;;;;;;;;;;;;2.93;83.10;101002.80;2706310;86;20137;-87
2022/12/19 20:34:23;;;;;;;;;;;;;;;2.97;83.32;101003.11;2752958;84;20153;-88
2022/12/19 20:38:24;;;;;;;;;;;;;;;2.99;82.73;101006.53;2713950;84;20141;-89
2022/12/19 20:42:25;;;;;;;;;;;;;;;3.03;82.58;101003.78;2760718;84;20198;-88
2022/12/19 20:46:27;;;;;;;;;;;;;;;3.07;83.20;101002.30;2753658;84;20129;-87
2022/12/19 20:50:28;;;;;;;;;;;;;;;3.11;83.09;100999.06;2738987;85;20204;-86
2022/12/19 20:54:29;;;;;;;;;;;;;;;3.14;83.52;100996.31;2755695;84;20134;-88
2022/12/19 20:58:32;;;;;;;;;;;;;;;3.16;83.11;100997.14;2746668;84;20141;-89
2022/12/19 21:02:33;;;;;;;;;;;;;;;3.15;83.22;100984.91;2749167;84;20175;-89
2022/12/19 21:06:36;;;;;;;;;;;;;;;3.11;83.88;100984.16;2742301;84;20158;-89
2022/12/19 21:10:38;;;;;;;;;;;;;;;3.13;84.13;100977.52;2754105;86;20117;-89
2022/12/19 21:14:39;;;;;;;;;;;;;;;3.10;84.73;100973.70;2763148;84;20507;-90
2022/12/19 21:18:40;;;;;;;;;;;;;;;3.10;85.51;100968.00;2751741;84;20121;-90
2022/12/19 21:22:42;;;;;;;;;;;;;;;3.12;86.08;100975.80;2758583;84;20106;-89
2022/12/19 21:26:44;;;;;;;;;;;;;;;3.06;86.42;100978.23;2762250;84;20551;-90
2022/12/19 21:30:45;;;;;;;;;;;;;;;3.07;85.83;100993.09;2848136;82;20140;-90